Time;durP1;ratioP1;P1;durP2;ratioP2;P2;SDS_P1;SDS_P2;PMS_P1;PMS_P2;Temp;Humidity;BMP_temperature;BMP_pressure;BME280_temperature;BME280_humidity;BME280_pressure;Samples;Min_cycle;Max_cycle;Signal;HPM_P1;HPM_P2
2021/09/01 00:00:11;;;;;;;16.63;8.07;;;24.10;99.90;;;;;;5029555;28;22525;-73
2021/09/01 00:02:40;;;;;;;13.40;7.40;;;24.10;99.90;;;;;;5054822;28;20189;-73
2021/09/01 00:05:08;;;;;;;17.95;7.53;;;24.00;99.90;;;;;;5040085;28;20186;-73
2021/09/01 00:07:35;;;;;;;14.88;7.32;;;24.00;99.90;;;;;;5075530;28;20241;-74
2021/09/01 00:10:04;;;;;;;15.15;7.55;;;23.90;99.90;;;;;;5060211;28;20908;-75
2021/09/01 00:12:30;;;;;;;13.10;7.03;;;23.80;99.90;;;;;;5057082;28;20193;-74
2021/09/01 00:14:57;;;;;;;9.90;7.57;;;23.80;99.90;;;;;;5060494;28;20234;-73
2021/09/01 00:17:24;;;;;;;15.48;7.57;;;23.80;99.90;;;;;;5056200;28;20941;-74
2021/09/01 00:19:50;;;;;;;11.20;7.47;;;23.60;99.90;;;;;;5057626;28;20279;-71
2021/09/01 00:22:17;;;;;;;11.37;7.07;;;23.70;99.90;;;;;;5059204;28;20206;-71
2021/09/01 00:24:43;;;;;;;13.57;7.05;;;23.60;99.90;;;;;;5040791;28;20830;-72
2021/09/01 00:27:10;;;;;;;13.65;7.13;;;23.60;99.90;;;;;;5060429;28;20191;-71
2021/09/01 00:29:37;;;;;;;12.70;7.20;;;23.70;99.90;;;;;;5058871;28;20244;-72
2021/09/01 00:32:04;;;;;;;11.68;7.40;;;23.60;99.90;;;;;;5055933;28;20278;-74
2021/09/01 00:34:31;;;;;;;12.05;6.82;;;23.50;99.90;;;;;;5043327;28;20198;-71
2021/09/01 00:36:57;;;;;;;9.27;6.93;;;23.60;99.90;;;;;;5057042;28;20541;-73
2021/09/01 00:39:24;;;;;;;11.43;6.88;;;23.70;99.90;;;;;;5046482;28;20187;-71
2021/09/01 00:41:50;;;;;;;19.50;7.57;;;23.60;99.90;;;;;;5056864;28;20236;-73
2021/09/01 00:44:23;;;;;;;12.73;7.40;;;23.50;99.90;;;;;;5058407;28;20186;-72
2021/09/01 00:46:55;;;;;;;12.37;7.37;;;23.50;99.90;;;;;;5074002;28;20598;-72
2021/09/01 00:49:22;;;;;;;10.75;6.82;;;23.50;99.90;;;;;;5045338;28;20627;-74
2021/09/01 00:51:53;;;;;;;10.00;7.07;;;23.40;99.90;;;;;;5039692;28;20256;-72
2021/09/01 00:54:28;;;;;;;13.35;6.70;;;23.40;99.90;;;;;;5058255;28;20197;-73
2021/09/01 00:56:59;;;;;;;11.20;7.22;;;23.30;99.90;;;;;;5056156;28;20241;-73
2021/09/01 00:59:30;;;;;;;17.27;7.22;;;23.20;99.90;;;;;;5039984;28;20302;-73
2021/09/01 01:01:58;;;;;;;11.43;6.90;;;23.20;99.90;;;;;;5049722;28;20802;-73
2021/09/01 01:04:26;;;;;;;13.82;7.05;;;23.20;99.90;;;;;;5058129;28;20186;-72
2021/09/01 01:06:56;;;;;;;14.43;7.13;;;23.30;99.90;;;;;;5057832;28;20249;-72
2021/09/01 01:09:22;;;;;;;11.30;6.72;;;23.30;99.90;;;;;;5075349;28;20206;-74
2021/09/01 01:12:08;;;;;;;15.30;7.80;;;23.20;99.90;;;;;;5040684;28;20278;-74
2021/09/01 01:14:51;;;;;;;14.98;7.28;;;23.30;99.90;;;;;;5057556;28;20187;-73
2021/09/01 01:17:23;;;;;;;13.30;7.30;;;23.30;99.90;;;;;;5056276;28;20303;-74
2021/09/01 01:19:52;;;;;;;13.77;7.50;;;23.30;99.90;;;;;;5045349;28;22177;-76
2021/09/01 01:22:26;;;;;;;11.77;7.17;;;23.30;99.90;;;;;;5056967;28;20179;-73
2021/09/01 01:25:03;;;;;;;14.10;7.80;;;23.20;99.90;;;;;;5057114;28;20294;-73
2021/09/01 01:27:39;;;;;;;13.23;7.33;;;23.20;99.90;;;;;;5061911;28;20194;-74
2021/09/01 01:30:18;;;;;;;14.43;7.95;;;23.20;99.90;;;;;;5054457;28;20194;-74
2021/09/01 01:32:51;;;;;;;16.63;7.53;;;23.30;99.90;;;;;;5051510;28;22011;-74
2021/09/01 01:35:33;;;;;;;12.53;8.43;;;23.30;99.90;;;;;;5058238;28;20186;-76
2021/09/01 01:38:03;;;;;;;17.25;8.50;;;23.20;99.90;;;;;;5054271;28;20641;-72
2021/09/01 01:40:30;;;;;;;14.57;7.80;;;23.20;99.90;;;;;;5041516;28;20184;-74
2021/09/01 01:42:57;;;;;;;11.98;7.68;;;23.30;99.90;;;;;;5058961;28;20190;-73
2021/09/01 01:45:45;;;;;;;12.65;7.70;;;23.30;99.90;;;;;;5040199;28;20800;-74
2021/09/01 01:48:15;;;;;;;16.30;8.55;;;23.30;99.90;;;;;;5073400;28;20190;-73
2021/09/01 01:50:45;;;;;;;17.17;8.30;;;23.30;99.90;;;;;;5059118;28;20239;-75
2021/09/01 01:53:12;;;;;;;12.35;8.05;;;23.40;99.90;;;;;;5057959;28;20202;-73
2021/09/01 01:55:38;;;;;;;10.95;8.55;;;23.40;99.90;;;;;;5061248;28;20186;-73
2021/09/01 01:58:05;;;;;;;17.47;8.30;;;23.40;99.90;;;;;;5058803;28;20210;-73
2021/09/01 02:00:31;;;;;;;15.10;8.03;;;23.40;99.90;;;;;;5059891;28;20244;-74
2021/09/01 02:02:58;;;;;;;13.43;8.02;;;23.40;99.90;;;;;;5053594;28;20690;-76
2021/09/01 02:05:25;;;;;;;15.30;8.85;;;23.40;99.90;;;;;;5051768;28;20243;-75
2021/09/01 02:07:51;;;;;;;16.38;7.65;;;23.40;99.90;;;;;;5061222;28;20187;-76
2021/09/01 02:10:18;;;;;;;13.50;8.38;;;23.40;99.90;;;;;;5061780;28;20305;-74
2021/09/01 02:12:45;;;;;;;12.15;7.45;;;23.20;99.90;;;;;;5063897;28;20191;-74
2021/09/01 02:15:12;;;;;;;13.27;8.13;;;23.20;99.90;;;;;;5059163;28;20270;-74
2021/09/01 02:17:41;;;;;;;13.05;7.38;;;23.10;99.90;;;;;;5045515;28;20275;-74
2021/09/01 02:20:10;;;;;;;13.30;7.68;;;23.00;99.90;;;;;;5041671;28;20188;-74
2021/09/01 02:22:37;;;;;;;10.50;7.63;;;23.00;99.90;;;;;;5062049;28;20186;-73
2021/09/01 02:25:05;;;;;;;13.45;8.13;;;23.00;99.90;;;;;;5061570;28;20183;-76
2021/09/01 02:27:31;;;;;;;13.97;7.13;;;23.00;99.90;;;;;;5060368;28;20198;-72
2021/09/01 02:29:58;;;;;;;16.45;8.43;;;23.10;99.90;;;;;;5061734;28;20195;-73
2021/09/01 02:32:25;;;;;;;12.40;7.40;;;23.10;99.90;;;;;;5044260;28;20676;-75
2021/09/01 02:34:51;;;;;;;17.77;8.45;;;23.10;99.90;;;;;;5037490;28;20191;-74
2021/09/01 02:37:17;;;;;;;11.40;7.20;;;23.10;99.90;;;;;;5042254;28;20206;-76
2021/09/01 02:39:44;;;;;;;14.02;7.85;;;23.10;99.90;;;;;;5062507;28;20241;-75
2021/09/01 02:42:10;;;;;;;14.90;8.32;;;23.10;99.90;;;;;;5060500;28;20186;-74
2021/09/01 02:44:37;;;;;;;13.63;7.70;;;23.00;99.90;;;;;;5062742;28;21836;-73
2021/09/01 02:47:04;;;;;;;14.82;8.05;;;23.10;99.90;;;;;;5058850;28;20729;-74
2021/09/01 02:49:30;;;;;;;14.90;8.38;;;23.10;99.90;;;;;;5063331;28;20207;-74
2021/09/01 02:51:56;;;;;;;14.10;7.60;;;23.10;99.90;;;;;;5060128;28;20218;-74
2021/09/01 02:54:23;;;;;;;12.30;7.67;;;23.10;99.90;;;;;;5039318;28;20191;-74
2021/09/01 02:56:49;;;;;;;11.90;7.60;;;23.10;99.90;;;;;;5076213;28;20221;-74
2021/09/01 02:59:16;;;;;;;12.40;7.67;;;23.00;99.90;;;;;;5043032;28;20183;-76
2021/09/01 03:01:42;;;;;;;11.90;8.10;;;23.00;99.90;;;;;;5060353;28;20895;-74
2021/09/01 03:04:08;;;;;;;13.68;8.27;;;22.90;99.90;;;;;;5058802;28;20195;-75
2021/09/01 03:06:35;;;;;;;11.77;7.33;;;22.80;99.90;;;;;;5055046;28;20179;-75
2021/09/01 03:09:02;;;;;;;11.30;7.67;;;22.80;99.90;;;;;;5047478;28;20209;-74
2021/09/01 03:11:28;;;;;;;14.30;7.97;;;22.90;99.90;;;;;;5058695;28;20188;-75
2021/09/01 03:13:55;;;;;;;14.02;7.60;;;23.00;99.90;;;;;;5078956;28;20195;-72
2021/09/01 03:16:21;;;;;;;15.05;8.23;;;23.00;99.90;;;;;;5056296;28;20302;-72
2021/09/01 03:18:47;;;;;;;11.68;8.00;;;23.10;99.90;;;;;;5061424;28;20214;-73
2021/09/01 03:21:13;;;;;;;12.85;8.25;;;23.10;99.90;;;;;;5061659;28;20248;-72
2021/09/01 03:23:40;;;;;;;14.73;8.02;;;23.00;99.90;;;;;;5064940;28;20210;-74
2021/09/01 03:26:06;;;;;;;11.55;7.78;;;23.00;99.90;;;;;;5063064;28;20197;-73
2021/09/01 03:28:32;;;;;;;14.10;8.43;;;23.00;99.90;;;;;;5062414;28;20245;-73
2021/09/01 03:30:58;;;;;;;12.80;7.70;;;22.90;99.90;;;;;;5062315;28;20191;-73
2021/09/01 03:33:24;;;;;;;15.07;8.75;;;23.00;99.90;;;;;;5064731;28;21016;-72
2021/09/01 03:35:51;;;;;;;14.52;7.85;;;23.00;99.90;;;;;;5038907;28;20719;-73
2021/09/01 03:38:17;;;;;;;10.13;8.23;;;22.90;99.90;;;;;;5055618;28;20684;-75
2021/09/01 03:40:44;;;;;;;17.92;8.43;;;22.90;99.90;;;;;;5061777;28;20219;-75
2021/09/01 03:43:11;;;;;;;15.50;7.73;;;22.90;99.90;;;;;;5044506;28;20769;-72
2021/09/01 03:45:37;;;;;;;13.50;7.85;;;22.90;99.90;;;;;;5049037;28;20702;-72
2021/09/01 03:48:04;;;;;;;12.10;8.00;;;22.80;99.90;;;;;;5047131;28;20639;-73
2021/09/01 03:50:31;;;;;;;13.63;7.57;;;22.70;99.90;;;;;;5074354;28;20664;-74
2021/09/01 03:52:57;;;;;;;12.33;7.57;;;22.70;99.90;;;;;;5060543;28;20757;-73
2021/09/01 03:55:23;;;;;;;12.47;7.53;;;22.70;99.90;;;;;;5064127;28;20213;-74
2021/09/01 03:57:49;;;;;;;12.60;7.50;;;22.80;99.90;;;;;;5061465;28;20317;-74
2021/09/01 04:00:16;;;;;;;14.40;7.20;;;22.80;99.90;;;;;;5058736;28;20190;-75
2021/09/01 04:02:42;;;;;;;15.70;7.53;;;22.80;99.90;;;;;;5059123;28;20207;-74
2021/09/01 04:05:09;;;;;;;17.70;8.03;;;22.80;99.90;;;;;;5044046;28;20293;-72
2021/09/01 04:07:35;;;;;;;10.80;7.27;;;22.90;99.90;;;;;;5051998;28;20197;-73
2021/09/01 04:10:05;;;;;;;12.57;7.77;;;22.90;99.90;;;;;;5059976;28;20183;-76
2021/09/01 04:12:31;;;;;;;15.03;7.83;;;22.90;99.90;;;;;;5062432;28;20234;-74
2021/09/01 04:14:58;;;;;;;10.53;7.97;;;22.90;99.90;;;;;;5062547;28;20273;-73
2021/09/01 04:17:29;;;;;;;19.23;8.17;;;23.00;99.90;;;;;;5045599;28;20203;-73
2021/09/01 04:19:56;;;;;;;14.25;7.88;;;23.10;99.90;;;;;;5060379;28;20188;-73
2021/09/01 04:22:22;;;;;;;17.73;8.40;;;23.20;99.90;;;;;;5060842;28;20179;-74
2021/09/01 04:24:49;;;;;;;11.93;7.50;;;23.20;99.90;;;;;;5061375;28;20556;-73
2021/09/01 04:27:15;;;;;;;9.87;7.33;;;23.20;99.90;;;;;;5060921;28;20186;-74
2021/09/01 04:29:41;;;;;;;10.88;8.02;;;23.20;99.90;;;;;;5044506;28;20639;-74
2021/09/01 04:32:07;;;;;;;14.18;7.90;;;23.10;99.90;;;;;;5062206;28;20196;-73
2021/09/01 04:34:34;;;;;;;15.13;8.03;;;23.10;99.90;;;;;;5058328;28;20881;-73
2021/09/01 04:37:00;;;;;;;12.10;7.67;;;23.20;99.90;;;;;;5055734;28;20203;-73
2021/09/01 04:39:26;;;;;;;10.85;8.23;;;23.20;99.90;;;;;;5052449;28;20266;-74
2021/09/01 04:41:53;;;;;;;11.00;7.73;;;23.20;99.90;;;;;;5044015;28;20187;-73
2021/09/01 04:44:19;;;;;;;12.10;7.10;;;23.20;99.90;;;;;;5059019;28;20183;-72
2021/09/01 04:46:45;;;;;;;15.20;7.80;;;23.30;99.90;;;;;;5044124;28;20525;-73
2021/09/01 04:49:11;;;;;;;11.73;7.50;;;23.30;99.90;;;;;;5061051;28;20190;-73
2021/09/01 04:51:38;;;;;;;17.77;8.18;;;23.30;99.90;;;;;;5059024;28;20827;-74
2021/09/01 04:54:04;;;;;;;15.32;8.52;;;23.40;99.90;;;;;;5056307;28;20192;-74
2021/09/01 04:56:31;;;;;;;16.83;8.80;;;23.40;99.90;;;;;;5059961;28;20183;-73
2021/09/01 04:58:57;;;;;;;10.15;7.35;;;23.50;99.90;;;;;;5059627;28;20183;-74
2021/09/01 05:01:23;;;;;;;12.82;7.80;;;23.50;99.90;;;;;;5057475;28;20708;-72
2021/09/01 05:03:49;;;;;;;13.37;8.10;;;23.50;99.90;;;;;;5044378;28;20240;-72
2021/09/01 05:06:16;;;;;;;18.25;8.65;;;23.60;99.90;;;;;;5057353;28;20699;-74
2021/09/01 05:08:42;;;;;;;12.68;7.90;;;23.60;99.90;;;;;;5035786;28;20579;-73
2021/09/01 05:11:08;;;;;;;11.88;7.93;;;23.60;99.90;;;;;;5057085;28;20264;-74
2021/09/01 05:13:37;;;;;;;14.70;8.50;;;23.70;99.90;;;;;;5061358;28;20187;-75
2021/09/01 05:16:04;;;;;;;14.90;8.40;;;23.80;99.90;;;;;;5058171;28;20237;-72
2021/09/01 05:18:31;;;;;;;14.68;8.57;;;23.80;99.90;;;;;;5057941;28;20223;-73
2021/09/01 05:20:59;;;;;;;17.75;9.15;;;23.90;99.90;;;;;;5061612;28;20269;-74
2021/09/01 05:23:35;;;;;;;18.38;8.93;;;23.90;99.90;;;;;;5056954;28;20182;-74
2021/09/01 05:26:05;;;;;;;18.63;8.20;;;23.90;99.90;;;;;;5042420;28;20198;-74
2021/09/01 05:28:35;;;;;;;16.80;8.55;;;24.00;99.90;;;;;;5058681;28;20774;-74
2021/09/01 05:31:05;;;;;;;21.58;8.43;;;24.00;99.90;;;;;;5054214;28;20195;-75
2021/09/01 05:33:38;;;;;;;14.43;8.15;;;24.00;99.90;;;;;;5059320;28;20210;-73
2021/09/01 05:36:05;;;;;;;15.18;8.20;;;24.00;99.90;;;;;;5055340;28;20191;-75
2021/09/01 05:38:33;;;;;;;19.80;8.27;;;24.10;99.90;;;;;;5050433;28;20211;-74
2021/09/01 05:41:02;;;;;;;14.20;8.50;;;24.10;99.90;;;;;;5037818;28;20194;-75
2021/09/01 05:43:28;;;;;;;13.82;7.95;;;24.10;99.90;;;;;;5065011;28;20206;-72
2021/09/01 05:45:56;;;;;;;18.55;7.95;;;24.10;99.90;;;;;;5041931;28;20555;-74
2021/09/01 05:48:23;;;;;;;11.77;7.65;;;24.20;99.90;;;;;;5061455;28;20279;-73
2021/09/01 05:50:56;;;;;;;13.68;7.60;;;24.20;99.90;;;;;;5044582;28;20211;-73
2021/09/01 05:53:23;;;;;;;17.88;8.23;;;24.20;99.90;;;;;;5061915;28;20199;-73
2021/09/01 05:55:53;;;;;;;20.27;8.23;;;24.30;99.90;;;;;;5061580;28;20205;-74
2021/09/01 05:58:21;;;;;;;14.68;7.88;;;24.30;99.90;;;;;;5061400;28;21056;-74
2021/09/01 06:01:02;;;;;;;94.65;11.45;;;24.30;99.90;;;;;;5059638;28;20202;-74
2021/09/01 06:03:41;;;;;;;16.60;7.82;;;24.30;99.90;;;;;;5058430;28;20187;-73
2021/09/01 06:06:12;;;;;;;40.72;9.68;;;24.40;99.90;;;;;;5043340;28;20241;-73
2021/09/01 06:08:38;;;;;;;14.60;7.10;;;24.50;99.90;;;;;;5059576;28;20244;-72
2021/09/01 06:11:09;;;;;;;16.92;7.53;;;24.50;99.90;;;;;;5054097;28;20191;-73
2021/09/01 06:13:35;;;;;;;12.45;7.07;;;24.50;99.90;;;;;;5065701;28;20221;-74
2021/09/01 06:16:03;;;;;;;13.23;7.50;;;24.50;99.90;;;;;;5060973;28;20213;-75
2021/09/01 06:18:29;;;;;;;19.40;7.18;;;24.60;99.90;;;;;;5060235;28;20365;-75
2021/09/01 06:20:56;;;;;;;12.68;7.10;;;24.60;99.90;;;;;;5038217;28;20552;-73
2021/09/01 06:23:23;;;;;;;14.48;7.40;;;24.70;99.90;;;;;;5061334;28;20186;-75
2021/09/01 06:25:49;;;;;;;17.40;7.13;;;24.70;99.90;;;;;;5064752;28;20185;-72
2021/09/01 06:28:16;;;;;;;14.73;7.05;;;24.70;99.90;;;;;;5048010;28;20225;-75
2021/09/01 06:30:43;;;;;;;19.13;7.07;;;24.70;99.90;;;;;;5064466;28;20212;-74
2021/09/01 06:33:10;;;;;;;13.20;6.80;;;24.80;99.90;;;;;;5062078;28;20844;-73
2021/09/01 06:35:37;;;;;;;14.82;6.88;;;24.90;99.90;;;;;;5062141;28;20192;-74
2021/09/01 06:38:06;;;;;;;16.23;6.82;;;24.90;99.90;;;;;;5058633;28;20234;-73
2021/09/01 06:40:32;;;;;;;13.07;6.68;;;24.90;99.90;;;;;;5057633;28;20864;-77
2021/09/01 06:42:58;;;;;;;11.18;6.05;;;25.00;99.90;;;;;;5041415;28;20202;-74
2021/09/01 06:45:27;;;;;;;13.43;5.88;;;25.00;99.90;;;;;;5059238;28;20215;-73
2021/09/01 06:47:53;;;;;;;11.80;6.22;;;25.10;99.90;;;;;;5062220;28;20570;-76
2021/09/01 06:50:23;;;;;;;11.57;6.10;;;25.10;99.90;;;;;;5049019;28;20194;-73
2021/09/01 06:52:50;;;;;;;11.57;6.43;;;25.10;99.90;;;;;;5063544;28;20194;-73
2021/09/01 06:55:17;;;;;;;13.05;6.22;;;25.20;99.90;;;;;;5061456;28;20234;-74
2021/09/01 06:57:44;;;;;;;16.67;6.55;;;25.30;99.90;;;;;;5062107;28;20608;-74
2021/09/01 07:00:15;;;;;;;15.55;6.28;;;25.40;99.90;;;;;;5059618;28;20191;-73
2021/09/01 07:02:42;;;;;;;14.82;6.07;;;25.50;99.90;;;;;;5062240;28;20183;-72
2021/09/01 07:05:11;;;;;;;9.38;5.78;;;25.60;99.90;;;;;;5045970;28;20768;-75
2021/09/01 07:07:42;;;;;;;11.98;5.47;;;25.60;99.90;;;;;;5058662;28;20194;-73
2021/09/01 07:10:10;;;;;;;12.32;6.10;;;25.60;99.90;;;;;;5061422;28;20191;-74
2021/09/01 07:12:36;;;;;;;11.35;5.75;;;25.80;99.90;;;;;;5037327;28;20211;-75
2021/09/01 07:15:07;;;;;;;10.35;5.85;;;25.70;99.90;;;;;;5060431;28;20655;-73
2021/09/01 07:17:37;;;;;;;9.82;5.68;;;25.80;99.90;;;;;;5061626;28;20207;-73
2021/09/01 07:20:07;;;;;;;11.77;5.00;;;25.80;99.90;;;;;;5060302;28;20858;-73
2021/09/01 07:22:33;;;;;;;11.32;5.55;;;25.80;99.90;;;;;;5060989;28;20268;-74
2021/09/01 07:24:59;;;;;;;15.23;5.57;;;25.80;99.90;;;;;;5061867;28;20568;-74
2021/09/01 07:27:26;;;;;;;10.95;6.15;;;25.90;99.90;;;;;;5061724;28;20184;-74
2021/09/01 07:29:52;;;;;;;12.65;5.82;;;26.00;99.90;;;;;;5046643;28;20606;-75
2021/09/01 07:32:21;;;;;;;14.77;5.97;;;26.20;99.90;;;;;;5076847;28;20233;-73
2021/09/01 07:34:48;;;;;;;15.80;5.32;;;26.20;99.90;;;;;;5045346;28;20248;-74
2021/09/01 07:37:14;;;;;;;11.00;5.45;;;26.20;99.90;;;;;;5042988;28;20207;-74
2021/09/01 07:39:41;;;;;;;8.10;5.43;;;26.20;99.90;;;;;;5062437;28;20237;-75
2021/09/01 07:42:07;;;;;;;14.95;5.22;;;26.10;99.90;;;;;;5055802;28;20241;-75
2021/09/01 07:44:36;;;;;;;9.77;5.13;;;26.20;99.90;;;;;;5037474;28;21021;-73
2021/09/01 07:47:03;;;;;;;12.90;5.60;;;26.40;99.90;;;;;;5064561;28;20277;-73
2021/09/01 07:49:30;;;;;;;14.23;5.25;;;26.30;99.90;;;;;;5062537;28;20226;-75
2021/09/01 07:51:56;;;;;;;14.93;5.50;;;26.50;99.90;;;;;;5042043;28;20203;-75
2021/09/01 07:54:23;;;;;;;9.10;5.50;;;26.70;99.90;;;;;;5072437;28;20175;-74
2021/09/01 07:56:50;;;;;;;10.20;4.90;;;26.60;99.90;;;;;;5039367;28;20701;-76
2021/09/01 07:59:16;;;;;;;15.35;5.60;;;26.60;99.90;;;;;;5061109;28;20187;-73
2021/09/01 08:01:43;;;;;;;10.32;4.68;;;26.90;99.90;;;;;;5045478;28;20195;-73
2021/09/01 08:04:09;;;;;;;11.10;5.03;;;26.90;99.90;;;;;;5058735;28;20726;-75
2021/09/01 08:06:36;;;;;;;8.95;4.85;;;26.80;99.90;;;;;;5042646;28;20887;-74
2021/09/01 08:09:05;;;;;;;13.50;5.22;;;26.90;99.90;;;;;;5055499;28;20233;-73
2021/09/01 08:11:31;;;;;;;12.00;5.20;;;27.00;99.90;;;;;;5062297;28;20603;-73
2021/09/01 08:13:58;;;;;;;13.95;4.93;;;27.10;99.90;;;;;;5055109;28;20175;-75
2021/09/01 08:16:26;;;;;;;13.15;5.10;;;27.10;99.90;;;;;;5040785;28;20183;-74
2021/09/01 08:18:53;;;;;;;14.65;5.10;;;27.20;99.90;;;;;;5045343;28;20631;-74
2021/09/01 08:21:19;;;;;;;13.27;5.03;;;27.20;99.90;;;;;;5043414;28;20232;-73
2021/09/01 08:23:46;;;;;;;7.88;4.70;;;27.30;99.90;;;;;;5060203;28;20199;-73
2021/09/01 08:26:12;;;;;;;9.18;5.07;;;27.20;99.90;;;;;;5058600;28;20213;-74
2021/09/01 08:28:40;;;;;;;15.25;5.40;;;27.20;99.90;;;;;;5045418;28;20225;-75
2021/09/01 08:31:07;;;;;;;21.42;5.03;;;27.60;99.90;;;;;;5046465;28;20693;-75
2021/09/01 08:33:37;;;;;;;17.20;4.90;;;27.80;99.90;;;;;;5047507;28;20282;-74
2021/09/01 08:36:04;;;;;;;14.70;4.95;;;28.00;99.90;;;;;;5059851;28;20635;-75
2021/09/01 08:38:31;;;;;;;12.13;5.10;;;28.10;99.90;;;;;;5057333;28;20220;-75
2021/09/01 08:40:57;;;;;;;14.85;5.05;;;28.20;99.90;;;;;;5043589;28;20188;-73
2021/09/01 08:43:24;;;;;;;12.70;4.22;;;28.30;99.90;;;;;;5057657;28;20191;-75
2021/09/01 08:45:51;;;;;;;9.65;4.50;;;28.60;99.90;;;;;;5051280;28;20240;-72
2021/09/01 08:48:18;;;;;;;14.95;4.90;;;29.00;99.90;;;;;;5060541;28;20226;-73
2021/09/01 08:50:45;;;;;;;15.27;4.95;;;29.10;99.90;;;;;;5041476;28;20264;-73
2021/09/01 08:53:12;;;;;;;11.88;4.45;;;29.30;99.90;;;;;;5058781;28;20406;-75
2021/09/01 08:55:40;;;;;;;10.90;4.65;;;29.00;99.90;;;;;;5057661;28;20205;-74
2021/09/01 08:58:09;;;;;;;9.80;4.72;;;28.90;99.90;;;;;;5043555;28;20203;-73
2021/09/01 09:00:36;;;;;;;8.77;4.93;;;28.60;99.90;;;;;;5037740;28;20298;-74
2021/09/01 09:03:03;;;;;;;11.82;4.88;;;28.30;99.90;;;;;;5055050;28;20211;-75
2021/09/01 09:05:39;;;;;;;8.73;4.53;;;28.20;99.90;;;;;;5059681;28;20544;-72
2021/09/01 09:08:13;;;;;;;16.23;4.82;;;28.30;99.90;;;;;;5060410;28;20569;-73
2021/09/01 09:10:48;;;;;;;8.82;4.10;;;28.80;99.90;;;;;;5056843;28;20698;-72
2021/09/01 09:13:30;;;;;;;9.68;4.75;;;28.80;99.90;;;;;;5056765;28;20236;-73
2021/09/01 09:16:12;;;;;;;11.00;5.22;;;28.90;99.90;;;;;;5060746;28;20878;-74
2021/09/01 09:18:40;;;;;;;9.73;4.25;;;28.90;99.90;;;;;;5065099;28;20809;-72
2021/09/01 09:21:21;;;;;;;14.80;5.57;;;28.80;99.90;;;;;;5043338;28;20262;-73
2021/09/01 09:23:51;;;;;;;11.82;4.65;;;29.30;99.90;;;;;;5062231;28;20265;-74
2021/09/01 09:26:30;;;;;;;17.58;4.65;;;29.30;99.90;;;;;;5061444;28;20209;-74
2021/09/01 09:29:13;;;;;;;15.32;4.78;;;29.30;99.90;;;;;;5062686;28;20853;-73
2021/09/01 09:31:43;;;;;;;12.32;5.07;;;29.30;99.90;;;;;;5056287;28;20201;-73
2021/09/01 09:34:19;;;;;;;14.98;4.93;;;29.40;99.90;;;;;;5079145;28;20190;-74
2021/09/01 09:37:12;;;;;;;11.90;5.13;;;29.60;99.90;;;;;;5058651;28;20653;-73
2021/09/01 09:39:47;;;;;;;15.10;4.80;;;29.60;99.90;;;;;;5061347;28;20658;-72
2021/09/01 09:42:36;;;;;;;12.65;4.50;;;29.60;99.90;;;;;;5062811;28;20207;-74
2021/09/01 09:45:25;;;;;;;15.00;4.80;;;29.80;99.90;;;;;;5061461;28;20197;-76
2021/09/01 09:47:55;;;;;;;11.15;4.60;;;29.80;99.90;;;;;;5065284;28;20312;-73
2021/09/01 09:50:22;;;;;;;15.70;4.85;;;29.90;99.90;;;;;;5059854;28;20201;-73
2021/09/01 09:52:50;;;;;;;10.20;4.30;;;29.90;99.90;;;;;;5063830;28;20201;-72
2021/09/01 09:55:22;;;;;;;14.60;5.07;;;29.60;99.90;;;;;;5063519;28;20186;-71
2021/09/01 09:57:51;;;;;;;17.20;4.70;;;29.50;99.90;;;;;;5063955;28;20214;-72
2021/09/01 10:00:20;;;;;;;12.95;4.78;;;30.20;99.90;;;;;;5061865;28;20781;-73
2021/09/01 10:02:47;;;;;;;9.20;4.57;;;29.80;99.90;;;;;;5054993;28;20191;-73
2021/09/01 10:05:17;;;;;;;8.07;4.30;;;29.60;99.90;;;;;;5062975;28;20187;-74
2021/09/01 10:07:44;;;;;;;16.70;5.10;;;29.80;99.90;;;;;;5064242;28;20215;-74
2021/09/01 10:10:12;;;;;;;9.20;4.13;;;29.80;99.90;;;;;;5061587;28;20715;-73
2021/09/01 10:12:45;;;;;;;13.13;5.00;;;29.90;99.90;;;;;;5046214;28;20182;-73
2021/09/01 10:15:38;;;;;;;14.48;4.30;;;30.90;99.90;;;;;;5060605;28;21015;-71
2021/09/01 10:18:08;;;;;;;9.00;4.07;;;33.40;99.90;;;;;;5059576;28;20227;-74
2021/09/01 10:20:42;;;;;;;14.95;4.25;;;33.90;99.90;;;;;;5063595;28;20217;-73
2021/09/01 10:23:10;;;;;;;18.05;4.43;;;34.40;99.90;;;;;;5056050;28;20656;-72
2021/09/01 10:25:49;;;;;;;9.10;4.22;;;33.90;99.90;;;;;;5060819;28;20266;-73
2021/09/01 10:28:21;;;;;;;10.43;4.28;;;32.80;99.90;;;;;;5060916;28;20195;-73
2021/09/01 10:31:10;;;;;;;19.52;4.95;;;31.90;99.90;;;;;;5046931;28;20198;-73
2021/09/01 10:33:42;;;;;;;14.35;4.28;;;31.90;99.90;;;;;;5054053;28;20305;-73
2021/09/01 10:36:26;;;;;;;16.25;6.18;;;31.90;99.90;;;;;;5057023;28;20191;-72
2021/09/01 10:39:15;;;;;;;9.98;4.40;;;32.20;99.90;;;;;;5062279;28;20264;-72
2021/09/01 10:41:42;;;;;;;11.30;4.70;;;32.30;99.90;;;;;;5044296;28;20274;-74
2021/09/01 10:44:21;;;;;;;9.60;4.50;;;33.60;99.90;;;;;;5061263;28;20198;-72
2021/09/01 10:47:00;;;;;;;11.55;4.47;;;33.00;99.90;;;;;;5060686;28;20233;-72
2021/09/01 10:49:55;;;;;;;13.80;5.20;;;31.90;99.90;;;;;;5060655;28;20182;-72
2021/09/01 10:52:22;;;;;;;10.23;4.43;;;31.40;99.90;;;;;;5063215;28;21025;-73
2021/09/01 10:54:50;;;;;;;14.85;5.35;;;30.90;99.90;;;;;;5059366;28;20187;-72
2021/09/01 10:57:28;;;;;;;8.63;4.03;;;30.50;99.90;;;;;;5062589;28;20663;-72
2021/09/01 10:59:59;;;;;;;10.73;4.22;;;30.40;99.90;;;;;;5063625;28;20192;-73
2021/09/01 11:02:26;;;;;;;14.48;4.47;;;30.40;99.90;;;;;;5061822;28;20690;-77
2021/09/01 11:04:59;;;;;;;9.77;4.05;;;30.40;99.90;;;;;;5050198;28;20180;-76
2021/09/01 11:07:31;;;;;;;12.27;4.28;;;30.50;99.90;;;;;;5060135;28;20667;-73
2021/09/01 11:10:00;;;;;;;12.13;4.20;;;30.50;99.90;;;;;;5060754;28;20199;-73
2021/09/01 11:12:29;;;;;;;11.15;4.43;;;30.50;99.90;;;;;;5043073;28;20182;-73
2021/09/01 11:14:57;;;;;;;14.18;4.75;;;30.50;99.90;;;;;;5058991;28;20578;-73
2021/09/01 11:17:29;;;;;;;381.05;23.77;;;30.50;99.90;;;;;;5059502;28;20256;-73
2021/09/01 11:19:59;;;;;;;13.68;4.40;;;30.70;99.90;;;;;;5061175;28;20690;-72
2021/09/01 11:22:35;;;;;;;12.43;4.30;;;30.80;99.90;;;;;;5059009;28;20187;-71
2021/09/01 11:25:11;;;;;;;10.90;4.30;;;30.70;99.90;;;;;;5060302;28;20197;-73
2021/09/01 11:27:57;;;;;;;96.47;9.15;;;30.70;99.90;;;;;;5061042;28;20728;-73
2021/09/01 11:30:33;;;;;;;104.47;9.07;;;30.50;99.90;;;;;;5059365;28;20194;-73
2021/09/01 11:33:00;;;;;;;7.82;4.75;;;30.20;99.90;;;;;;5045204;28;20197;-73
2021/09/01 11:35:29;;;;;;;20.27;4.40;;;30.00;99.90;;;;;;5047971;28;20584;-72
2021/09/01 11:38:07;;;;;;;111.63;9.40;;;30.20;99.90;;;;;;5055855;28;20219;-73
2021/09/01 11:40:42;;;;;;;159.70;11.82;;;30.50;99.90;;;;;;5074234;28;20187;-74
2021/09/01 11:43:20;;;;;;;209.30;13.13;;;30.50;99.90;;;;;;5057816;28;20247;-73
2021/09/01 11:45:49;;;;;;;24.92;4.75;;;30.40;99.90;;;;;;5041232;28;20202;-74
2021/09/01 11:48:17;;;;;;;17.58;4.43;;;30.50;99.90;;;;;;5057082;28;20191;-72
2021/09/01 11:50:49;;;;;;;28.10;5.30;;;30.70;99.90;;;;;;5058665;28;21082;-73
2021/09/01 11:53:20;;;;;;;15.43;4.50;;;30.60;99.90;;;;;;5055436;28;20325;-72
2021/09/01 11:55:46;;;;;;;508.15;26.27;;;30.70;99.90;;;;;;5043964;28;20229;-75
